createdAt,value
2023-05-24T00:03:40.522Z,90.20
2023-05-24T00:08:42.688Z,90.20
2023-05-24T00:13:44.792Z,90.20
2023-05-24T00:18:48.207Z,90.20
2023-05-24T00:23:52.083Z,90.30
2023-05-24T00:28:53.969Z,90.30
2023-05-24T00:33:55.940Z,90.30
2023-05-24T00:38:57.790Z,90.30
2023-05-24T00:43:59.733Z,90.30
2023-05-24T00:49:04.405Z,90.30
2023-05-24T00:54:07.010Z,90.30
2023-05-24T00:59:09.429Z,90.30
2023-05-24T01:04:14.027Z,90.40
2023-05-24T01:09:50.993Z,90.40
2023-05-24T01:15:10.325Z,90.40
2023-05-24T01:20:15.063Z,90.40
2023-05-24T01:25:28.252Z,90.40
2023-05-24T01:30:30.662Z,90.50
2023-05-24T01:35:34.369Z,90.40
2023-05-24T01:40:37.745Z,90.50
2023-05-24T01:45:57.715Z,90.50
2023-05-24T01:51:00.885Z,90.50
2023-05-24T01:56:05.697Z,90.50
2023-05-24T02:01:08.429Z,90.50
2023-05-24T02:06:10.778Z,90.50
2023-05-24T02:11:14.982Z,90.50
2023-05-24T02:16:18.205Z,90.60
2023-05-24T02:21:20.173Z,90.50
2023-05-24T02:26:22.113Z,90.60
2023-05-24T02:31:25.852Z,90.60
2023-05-24T02:36:27.969Z,90.70
2023-05-24T02:41:30.047Z,90.70
2023-05-24T02:46:31.928Z,90.60
2023-05-24T02:51:33.781Z,90.60
2023-05-24T02:56:35.675Z,90.60
2023-05-24T03:01:37.894Z,90.70
2023-05-24T03:06:40.007Z,90.70
2023-05-24T03:11:43.277Z,90.70
2023-05-24T03:16:46.035Z,90.70
2023-05-24T03:21:48.012Z,90.70
2023-05-24T03:26:49.990Z,90.70
2023-05-24T03:31:52.674Z,90.60
2023-05-24T03:36:54.743Z,90.60
2023-05-24T03:41:57.338Z,90.70
2023-05-24T03:46:59.243Z,91.00
2023-05-24T03:52:01.438Z,90.70
2023-05-24T03:57:03.428Z,90.70
2023-05-24T04:02:05.678Z,90.70
2023-05-24T04:07:08.237Z,90.70
2023-05-24T04:12:11.641Z,90.70
2023-05-24T04:17:17.174Z,90.70
2023-05-24T04:22:20.022Z,91.00
2023-05-24T04:27:26.050Z,90.70
2023-05-24T04:32:31.271Z,90.70
2023-05-24T04:37:34.212Z,90.70
2023-05-24T04:42:36.348Z,90.70
2023-05-24T04:47:38.260Z,91.00
2023-05-24T04:52:40.162Z,90.70
2023-05-24T04:57:42.047Z,90.70
2023-05-24T05:02:44.111Z,90.70
2023-05-24T05:07:45.981Z,90.70
2023-05-24T05:12:47.829Z,90.70
2023-05-24T05:17:50.243Z,90.70
2023-05-24T05:22:52.186Z,90.70
2023-05-24T05:27:54.006Z,90.70
2023-05-24T05:32:56.090Z,90.70
2023-05-24T05:37:57.997Z,90.70
2023-05-24T05:42:59.854Z,90.70
2023-05-24T05:48:01.800Z,90.70
2023-05-24T05:53:03.710Z,90.70
2023-05-24T05:58:05.535Z,90.70
2023-05-24T06:03:07.556Z,90.70
2023-05-24T06:08:09.498Z,90.70
2023-05-24T06:13:11.401Z,90.70
2023-05-24T06:18:13.763Z,90.80
2023-05-24T06:23:15.629Z,90.80
2023-05-24T06:28:17.519Z,90.80
2023-05-24T06:33:19.461Z,90.80
2023-05-24T06:38:21.615Z,90.80
2023-05-24T06:43:23.539Z,90.80
2023-05-24T06:48:25.563Z,90.80
2023-05-24T06:53:27.584Z,90.80
2023-05-24T06:58:29.709Z,90.80
2023-05-24T07:03:32.479Z,90.90
2023-05-24T07:08:34.551Z,90.90
2023-05-24T07:13:36.730Z,90.90
2023-05-24T07:18:38.900Z,90.90
2023-05-24T07:23:41.020Z,91.00
2023-05-24T07:28:43.052Z,91.00
2023-05-24T07:33:44.911Z,91.00
2023-05-24T07:38:47.103Z,91.10
2023-05-24T07:43:49.369Z,91.10
2023-05-24T07:48:52.437Z,91.10
2023-05-24T07:53:54.592Z,91.10
2023-05-24T07:59:05.339Z,91.10
2023-05-24T08:04:09.870Z,91.10
2023-05-24T08:09:12.406Z,91.00
2023-05-24T08:14:14.569Z,91.10
2023-05-24T08:19:16.556Z,91.00
2023-05-24T08:24:18.552Z,91.10
2023-05-24T08:29:20.596Z,91.00
2023-05-24T08:34:22.572Z,90.90
2023-05-24T08:39:24.573Z,91.00
2023-05-24T08:44:29.401Z,91.00
2023-05-24T08:49:34.009Z,91.00
2023-05-24T08:54:37.073Z,91.10
2023-05-24T08:59:42.777Z,91.10
2023-05-24T09:04:48.689Z,91.00
2023-05-24T09:09:58.422Z,91.00
2023-05-24T09:15:00.863Z,91.00
2023-05-24T09:20:06.901Z,91.10
2023-05-24T09:25:10.872Z,91.00
2023-05-24T09:30:13.203Z,91.10
2023-05-24T09:35:15.340Z,91.00
2023-05-24T09:40:21.447Z,91.10
2023-05-24T09:45:24.648Z,91.10
2023-05-24T09:50:27.225Z,91.10
2023-05-24T09:55:30.220Z,91.10
2023-05-24T10:00:50.529Z,91.10
2023-05-24T10:05:54.326Z,91.10
2023-05-24T10:10:57.151Z,91.10
2023-05-24T10:15:59.256Z,91.20
2023-05-24T10:21:02.822Z,91.20
2023-05-24T10:26:09.553Z,91.30
2023-05-24T10:31:18.185Z,91.20
2023-05-24T10:36:20.386Z,91.20
2023-05-24T10:41:27.483Z,91.20
2023-05-24T10:46:29.669Z,91.20
2023-05-24T10:51:38.645Z,91.20
2023-05-24T10:56:43.182Z,91.20
2023-05-24T11:01:45.341Z,91.20
2023-05-24T11:07:01.694Z,91.20
2023-05-24T11:12:07.971Z,91.20
2023-05-24T11:17:10.771Z,91.20
2023-05-24T11:22:15.200Z,91.20
2023-05-24T11:27:17.509Z,91.20
2023-05-24T11:32:21.332Z,91.20
2023-05-24T11:37:34.883Z,91.20
2023-05-24T11:42:45.520Z,91.20
2023-05-24T11:47:49.838Z,91.30
2023-05-24T11:52:51.857Z,91.30
2023-05-24T11:58:02.178Z,91.40
2023-05-24T12:03:07.667Z,91.50
2023-05-24T12:08:12.706Z,91.40
2023-05-24T12:13:23.574Z,91.50
2023-05-24T12:18:26.605Z,91.90
2023-05-24T12:23:29.717Z,91.60
2023-05-24T12:28:36.522Z,91.60
2023-05-24T12:33:39.564Z,91.60
2023-05-24T12:38:41.536Z,91.60
2023-05-24T12:43:44.473Z,91.70
2023-05-24T12:48:46.870Z,91.70
2023-05-24T12:53:48.870Z,91.80
2023-05-24T12:58:50.860Z,91.70
2023-05-24T13:03:54.216Z,91.60
2023-05-24T13:08:56.391Z,91.70
2023-05-24T13:13:59.747Z,91.70
2023-05-24T13:19:01.907Z,91.80
2023-05-24T13:24:05.568Z,91.70
2023-05-24T13:34:15.591Z,91.50
2023-05-24T13:39:17.792Z,91.40
2023-05-24T13:44:20.051Z,91.30
2023-05-24T13:49:22.513Z,91.20
2023-05-24T13:54:24.738Z,91.20
2023-05-24T13:59:27.345Z,91.20
2023-05-24T14:04:38.625Z,91.20
2023-05-24T14:09:40.570Z,91.10
2023-05-24T14:19:47.278Z,91.00
2023-05-24T14:24:49.129Z,91.00
2023-05-24T14:29:51.125Z,91.00
2023-05-24T14:34:54.655Z,91.00
2023-05-24T14:39:56.862Z,91.00
2023-05-24T14:44:58.790Z,90.90
2023-05-24T14:50:00.760Z,90.90
2023-05-24T14:55:03.916Z,90.80
2023-05-24T15:00:06.440Z,90.80
2023-05-24T15:05:08.516Z,90.70
2023-05-24T15:10:11.038Z,90.70
2023-05-24T15:15:13.368Z,90.60
2023-05-24T15:20:19.557Z,90.50
2023-05-24T15:25:22.492Z,90.50
2023-05-24T15:30:25.052Z,90.40
2023-05-24T15:35:27.229Z,90.40
2023-05-24T15:40:29.257Z,90.30
2023-05-24T15:45:31.591Z,90.20
2023-05-24T15:50:57.347Z,90.20
2023-05-24T15:55:58.494Z,90.10
2023-05-24T16:01:02.881Z,90.00
2023-05-24T16:06:06.582Z,90.00
2023-05-24T16:11:10.045Z,90.00
2023-05-24T16:16:12.315Z,89.80
2023-05-24T16:21:14.290Z,90.10
2023-05-24T16:26:16.183Z,89.60
2023-05-24T16:31:18.247Z,89.40
2023-05-24T16:36:21.210Z,89.40
2023-05-24T16:41:23.449Z,89.40
2023-05-24T16:46:25.921Z,89.20
2023-05-24T16:51:27.867Z,89.20
2023-05-24T16:56:30.192Z,89.00
2023-05-24T17:01:32.288Z,88.80
2023-05-24T17:06:34.248Z,88.80
2023-05-24T17:11:36.990Z,88.70
2023-05-24T17:16:39.172Z,88.70
2023-05-24T17:21:41.353Z,88.50
2023-05-24T17:26:43.410Z,88.60
2023-05-24T17:31:45.600Z,88.50
2023-05-24T17:36:47.554Z,88.50
2023-05-24T17:41:49.648Z,88.40
2023-05-24T17:46:51.621Z,88.40
2023-05-24T17:51:54.227Z,88.40
2023-05-24T17:56:56.753Z,88.40
2023-05-24T18:01:58.787Z,88.40
2023-05-24T18:07:01.193Z,88.40
2023-05-24T18:12:03.386Z,88.40
2023-05-24T18:17:05.604Z,88.50
2023-05-24T18:22:08.007Z,88.40
2023-05-24T18:27:09.972Z,88.60
2023-05-24T18:32:11.872Z,88.60
2023-05-24T18:37:13.947Z,88.60
2023-05-24T18:42:16.211Z,88.50
2023-05-24T18:47:18.086Z,89.10
2023-05-24T18:52:20.296Z,88.50
2023-05-24T18:57:22.476Z,88.40
2023-05-24T19:02:24.448Z,88.30
2023-05-24T19:07:28.944Z,88.30
2023-05-24T19:12:31.317Z,88.50
2023-05-24T19:17:33.680Z,88.40
2023-05-24T19:22:35.895Z,88.50
2023-05-24T19:27:39.806Z,88.50
2023-05-24T19:32:46.953Z,88.50
2023-05-24T19:37:48.899Z,88.70
2023-05-24T19:42:53.163Z,88.60
2023-05-24T19:47:55.201Z,88.70
2023-05-24T19:52:57.147Z,88.70
2023-05-24T19:57:59.044Z,88.70
2023-05-24T20:03:01.267Z,89.50
2023-05-24T20:08:04.049Z,88.80
2023-05-24T20:13:06.466Z,88.80
2023-05-24T20:18:08.436Z,88.80
2023-05-24T20:23:10.458Z,88.80
2023-05-24T20:28:25.661Z,88.90
2023-05-24T20:33:33.510Z,89.00
2023-05-24T20:38:35.812Z,89.10
2023-05-24T20:43:38.066Z,89.00
2023-05-24T20:48:40.016Z,89.00
2023-05-24T20:53:41.998Z,89.00
2023-05-24T20:58:45.602Z,89.00
2023-05-24T21:03:47.543Z,89.10
2023-05-24T21:08:49.466Z,89.10
2023-05-24T21:13:51.705Z,88.90
2023-05-24T21:18:53.640Z,89.00
2023-05-24T21:23:55.885Z,88.90
2023-05-24T21:28:57.883Z,88.70
2023-05-24T21:33:59.928Z,88.60
2023-05-24T21:39:07.439Z,88.40
2023-05-24T21:44:09.443Z,88.50
2023-05-24T21:49:11.339Z,88.40
2023-05-24T21:54:13.396Z,88.30
2023-05-24T21:59:15.518Z,88.20
2023-05-24T22:04:17.575Z,88.20
2023-05-24T22:09:19.556Z,88.10
2023-05-24T22:14:21.545Z,88.10
2023-05-24T22:24:30.899Z,88.10
2023-05-24T22:29:32.899Z,88.00
2023-05-24T22:34:34.984Z,87.90
2023-05-24T22:39:36.901Z,87.80
2023-05-24T22:44:38.823Z,87.60
2023-05-24T22:49:41.321Z,87.70
2023-05-24T22:54:43.295Z,87.50
2023-05-24T22:59:45.952Z,87.30
2023-05-24T23:04:48.317Z,87.20
2023-05-24T23:09:50.472Z,87.80
2023-05-24T23:14:54.097Z,86.90
2023-05-24T23:19:56.312Z,86.80
2023-05-24T23:24:58.357Z,86.70
2023-05-24T23:30:00.463Z,86.60
2023-05-24T23:35:02.510Z,86.50
2023-05-24T23:40:06.635Z,86.40
2023-05-24T23:45:08.869Z,86.30
2023-05-24T23:50:11.117Z,86.20
2023-05-24T23:55:13.046Z,86.20
